createdAt,value
2023-02-24T00:03:40.994Z,7.75
2023-02-24T00:06:17.607Z,7.95
2023-02-24T00:11:31.153Z,10.10
2023-02-24T00:14:04.227Z,9.93
2023-02-24T00:16:40.553Z,8.55
2023-02-24T00:19:16.974Z,7.70
2023-02-24T00:21:59.637Z,7.25
2023-02-24T03:35:40.054Z,3.15
2023-02-24T03:38:11.430Z,4.13
2023-02-24T03:40:43.561Z,3.53
2023-02-24T03:43:42.234Z,3.05
2023-02-24T03:49:23.332Z,3.15
2023-02-24T03:52:24.491Z,2.78
2023-02-24T03:59:09.997Z,3.25
2023-02-24T04:02:14.302Z,3.17
2023-02-24T04:05:19.350Z,2.58
2023-02-24T04:08:09.296Z,2.80
2023-02-24T04:11:00.343Z,2.47
2023-02-24T04:17:21.213Z,2.70
2023-02-24T04:31:10.966Z,3.00
2023-02-24T04:36:26.671Z,2.53
2023-02-24T04:38:55.190Z,3.60
2023-02-24T04:41:56.975Z,2.17
2023-02-24T04:44:34.983Z,2.45
2023-02-24T04:47:06.961Z,2.75
2023-02-24T04:49:35.827Z,2.10
2023-02-24T04:52:12.411Z,2.63
2023-02-24T04:54:45.196Z,1.90
2023-02-24T04:57:51.585Z,2.00
2023-02-24T05:00:27.009Z,2.60
2023-02-24T05:02:59.298Z,2.33
2023-02-24T05:05:36.742Z,2.47
2023-02-24T05:08:16.298Z,2.40
2023-02-24T05:10:51.089Z,2.78
2023-02-24T05:13:30.936Z,2.38
2023-02-24T05:16:56.223Z,1.90
2023-02-24T05:22:32.686Z,2.42
2023-02-24T05:25:20.908Z,2.22
2023-02-24T05:27:51.972Z,2.55
2023-02-24T05:30:27.898Z,2.28
2023-02-24T05:38:47.819Z,2.20
2023-02-24T05:41:22.008Z,2.50
2023-02-24T05:44:08.787Z,2.45
2023-02-24T06:31:09.921Z,2.15
2023-02-24T06:33:47.309Z,2.10
2023-02-24T06:36:18.172Z,2.20
2023-02-24T06:38:47.707Z,2.13
2023-02-24T06:41:18.573Z,2.60
2023-02-24T06:44:07.400Z,2.65
2023-02-24T06:46:35.551Z,3.33
2023-02-24T06:49:10.291Z,2.63
2023-02-24T06:51:42.336Z,2.47
2023-02-24T06:54:10.267Z,3.00
2023-02-24T06:56:40.314Z,2.80
2023-02-24T06:59:12.219Z,2.80
2023-02-24T07:01:45.460Z,3.00
2023-02-24T07:04:14.124Z,2.53
2023-02-24T07:06:43.471Z,3.08
2023-02-24T07:09:15.744Z,2.55
2023-02-24T07:11:47.214Z,2.78
2023-02-24T07:14:16.725Z,2.47
2023-02-24T07:16:45.440Z,2.80
2023-02-24T07:19:16.550Z,3.50
2023-02-24T07:21:52.564Z,2.40
2023-02-24T07:24:25.216Z,2.70
2023-02-24T07:26:57.917Z,3.10
2023-02-24T07:29:29.630Z,3.03
2023-02-24T07:32:01.664Z,2.95
2023-02-24T07:34:29.463Z,2.83
2023-02-24T07:36:57.997Z,3.40
2023-02-24T07:39:29.129Z,2.80
2023-02-24T07:41:59.443Z,3.13
2023-02-24T07:44:26.915Z,3.30
2023-02-24T07:46:55.144Z,3.35
2023-02-24T07:49:28.190Z,3.25
2023-02-24T07:51:57.858Z,3.17
2023-02-24T07:54:27.804Z,3.67
2023-02-24T07:56:59.487Z,2.80
2023-02-24T07:59:29.663Z,3.83
2023-02-24T08:01:57.518Z,3.35
2023-02-24T08:04:28.562Z,4.25
2023-02-24T08:06:56.415Z,3.00
2023-02-24T08:09:46.250Z,3.10
2023-02-24T08:12:21.479Z,3.30
2023-02-24T08:14:52.636Z,3.28
2023-02-24T08:17:26.793Z,3.53
2023-02-24T08:20:14.638Z,3.03
2023-02-24T08:22:52.400Z,3.35
2023-02-24T08:25:38.253Z,3.78
2023-02-24T08:28:11.601Z,3.92
2023-02-24T08:30:46.037Z,3.90
2023-02-24T08:33:20.086Z,3.30
2023-02-24T08:36:01.639Z,3.67
2023-02-24T08:38:39.618Z,3.15
2023-02-24T08:41:13.239Z,3.30
2023-02-24T08:43:42.186Z,3.60
2023-02-24T08:46:13.731Z,3.53
2023-02-24T08:48:44.646Z,3.47
2023-02-24T08:51:15.815Z,3.78
2023-02-24T08:53:44.357Z,3.15
2023-02-24T08:56:13.505Z,3.70
2023-02-24T08:58:47.334Z,3.90
2023-02-24T09:01:24.378Z,3.22
2023-02-24T09:03:57.836Z,3.88
2023-02-24T09:06:37.751Z,3.20
2023-02-24T09:09:18.031Z,3.78
2023-02-24T09:11:49.940Z,3.63
2023-02-24T09:14:29.066Z,3.92
2023-02-24T09:17:11.643Z,3.70
2023-02-24T09:19:46.354Z,3.63
2023-02-24T09:22:31.426Z,4.65
2023-02-24T09:25:42.647Z,3.75
2023-02-24T09:28:17.775Z,3.90
2023-02-24T09:31:05.001Z,4.00
2023-02-24T09:33:44.278Z,3.75
2023-02-24T09:36:31.591Z,3.88
2023-02-24T09:39:01.619Z,4.50
2023-02-24T09:42:01.420Z,3.72
2023-02-24T09:44:48.624Z,4.72
2023-02-24T09:47:42.664Z,4.03
2023-02-24T09:50:51.645Z,4.95
2023-02-24T09:53:17.928Z,3.93
2023-02-24T09:56:06.095Z,4.50
2023-02-24T09:58:52.218Z,4.70
2023-02-24T10:01:31.221Z,4.75
2023-02-24T10:04:23.400Z,5.05
2023-02-24T10:07:03.397Z,4.82
2023-02-24T10:09:41.782Z,4.40
2023-02-24T10:12:17.350Z,4.53
2023-02-24T10:15:20.366Z,4.57
2023-02-24T10:18:03.539Z,4.68
2023-02-24T10:23:09.756Z,4.35
2023-02-24T10:25:55.811Z,4.38
2023-02-24T10:28:43.847Z,4.10
2023-02-24T10:31:35.823Z,4.22
2023-02-24T10:34:57.471Z,4.97
2023-02-24T10:37:29.559Z,4.85
2023-02-24T10:40:09.682Z,5.35
2023-02-24T10:42:45.978Z,5.65
2023-02-24T10:45:18.301Z,5.50
2023-02-24T10:47:57.041Z,5.15
2023-02-24T10:50:55.479Z,5.47
2023-02-24T10:53:30.858Z,5.63
2023-02-24T10:56:22.734Z,5.60
2023-02-24T10:59:20.665Z,6.07
2023-02-24T11:02:24.820Z,6.10
2023-02-24T11:05:02.658Z,6.07
2023-02-24T11:07:44.150Z,6.45
2023-02-24T11:10:26.386Z,7.22
2023-02-24T11:13:14.178Z,7.47
2023-02-24T11:16:13.123Z,7.47
2023-02-24T11:18:45.942Z,8.00
2023-02-24T11:21:14.513Z,8.05
2023-02-24T11:24:00.144Z,8.68
2023-02-24T11:26:37.033Z,10.05
2023-02-24T11:29:13.679Z,10.48
2023-02-24T11:32:19.550Z,11.35
2023-02-24T11:35:11.659Z,11.88
2023-02-24T11:38:03.504Z,13.07
2023-02-24T11:40:39.643Z,14.32
2023-02-24T11:43:11.574Z,13.57
2023-02-24T11:45:43.594Z,15.37
2023-02-24T11:48:19.986Z,17.40
2023-02-24T11:51:07.791Z,18.40
2023-02-24T11:53:48.366Z,17.77
2023-02-24T11:56:39.446Z,18.88
2023-02-24T11:59:18.323Z,18.05
2023-02-24T12:02:03.982Z,18.08
2023-02-24T12:04:51.042Z,19.13
2023-02-24T12:07:30.927Z,19.88
2023-02-24T12:10:19.855Z,21.30
2023-02-24T12:13:11.809Z,20.23
2023-02-24T12:15:52.586Z,20.17
2023-02-24T12:18:22.280Z,18.95
2023-02-24T12:20:59.414Z,19.70
2023-02-24T12:23:33.269Z,19.75
2023-02-24T12:26:23.310Z,19.38
2023-02-24T12:29:24.359Z,19.23
2023-02-24T12:32:25.249Z,19.08
2023-02-24T12:35:20.010Z,18.73
2023-02-24T12:37:56.560Z,15.73
2023-02-24T12:40:31.084Z,16.50
2023-02-24T12:43:11.026Z,15.43
2023-02-24T12:45:53.387Z,16.30
2023-02-24T12:48:34.320Z,13.80
2023-02-24T12:51:14.354Z,14.13
2023-02-24T12:53:50.416Z,13.48
2023-02-24T12:56:56.431Z,12.30
2023-02-24T12:59:31.640Z,10.55
2023-02-24T13:02:25.286Z,10.98
2023-02-24T13:05:33.575Z,10.27
2023-02-24T13:08:36.524Z,10.40
2023-02-24T13:11:09.967Z,10.05
2023-02-24T13:13:48.845Z,9.52
2023-02-24T13:16:16.899Z,9.65
2023-02-24T13:18:45.416Z,9.30
2023-02-24T13:21:20.700Z,8.48
2023-02-24T13:24:03.719Z,8.63
2023-02-24T13:26:32.382Z,8.07
2023-02-24T13:29:13.893Z,9.38
2023-02-24T13:31:52.305Z,8.00
2023-02-24T13:34:41.490Z,7.28
2023-02-24T13:37:10.816Z,6.45
2023-02-24T13:39:44.271Z,6.55
2023-02-24T13:42:25.044Z,5.53
2023-02-24T13:45:17.722Z,5.30
2023-02-24T13:47:45.168Z,6.53
2023-02-24T13:50:27.859Z,6.05
2023-02-24T13:53:01.167Z,6.13
2023-02-24T13:56:06.302Z,6.40
2023-02-24T13:58:43.095Z,6.20
2023-02-24T14:01:14.092Z,6.75
2023-02-24T14:03:43.744Z,5.80
2023-02-24T14:06:27.486Z,5.30
2023-02-24T14:09:03.950Z,4.47
2023-02-24T14:11:35.393Z,5.15
2023-02-24T14:14:03.206Z,4.60
2023-02-24T14:16:38.389Z,4.90
2023-02-24T14:19:12.170Z,5.38
2023-02-24T14:21:47.353Z,5.03
2023-02-24T14:24:15.207Z,5.65
2023-02-24T14:26:51.480Z,4.80
2023-02-24T14:29:24.327Z,5.40
2023-02-24T14:34:26.435Z,4.63
2023-02-24T14:36:55.456Z,4.90
2023-02-24T14:39:25.883Z,4.93
2023-02-24T14:42:10.588Z,3.65
2023-02-24T14:44:44.589Z,3.95
2023-02-24T14:47:17.705Z,3.28
2023-02-24T14:49:58.050Z,4.22
2023-02-24T14:52:40.612Z,3.70
2023-02-24T14:55:13.885Z,3.95
2023-02-24T14:58:02.076Z,3.85
2023-02-24T15:00:52.130Z,3.40
2023-02-24T15:03:51.729Z,3.80
2023-02-24T15:06:30.480Z,4.13
2023-02-24T15:09:01.837Z,4.43
2023-02-24T15:11:32.833Z,4.18
2023-02-24T15:14:06.474Z,3.80
2023-02-24T15:16:38.413Z,3.58
2023-02-24T15:19:17.880Z,3.03
2023-02-24T15:21:45.491Z,2.90
2023-02-24T15:24:27.724Z,2.50
2023-02-24T15:27:18.199Z,2.03
2023-02-24T15:29:56.578Z,2.47
2023-02-24T15:32:26.306Z,2.20
2023-02-24T15:34:54.318Z,2.75
2023-02-24T15:37:34.974Z,2.15
2023-02-24T15:40:24.010Z,2.40
2023-02-24T15:43:08.096Z,3.00
2023-02-24T15:45:37.982Z,2.05
2023-02-24T15:48:20.909Z,2.58
2023-02-24T15:50:50.271Z,2.35
2023-02-24T15:53:18.411Z,2.08
2023-02-24T15:55:46.016Z,2.50
2023-02-24T15:58:18.922Z,2.78
2023-02-24T16:03:14.148Z,2.33
2023-02-24T16:05:41.642Z,3.10
2023-02-24T16:08:12.858Z,2.70
2023-02-24T16:10:40.958Z,2.33
2023-02-24T16:13:20.101Z,2.33
2023-02-24T16:15:51.640Z,2.10
2023-02-24T16:18:24.328Z,2.30
2023-02-24T16:20:57.272Z,2.03
2023-02-24T16:23:26.547Z,1.95
2023-02-24T16:26:02.268Z,1.75
2023-02-24T16:28:32.837Z,1.90
2023-02-24T16:31:02.615Z,2.10
2023-02-24T16:33:33.213Z,2.35
2023-02-24T16:36:04.277Z,2.33
2023-02-24T16:38:31.736Z,2.10
2023-02-24T16:40:59.412Z,2.03
2023-02-24T16:43:26.885Z,1.98
2023-02-24T16:46:01.684Z,2.90
2023-02-24T16:48:37.651Z,2.47
2023-02-24T16:51:09.132Z,2.17
2023-02-24T16:53:36.979Z,2.55
2023-02-24T16:56:05.137Z,2.80
2023-02-24T16:58:37.218Z,2.50
2023-02-24T17:01:06.911Z,2.60
2023-02-24T17:03:46.729Z,2.92
2023-02-24T17:06:14.553Z,3.08
2023-02-24T17:08:44.198Z,2.63
2023-02-24T17:11:14.908Z,2.63
2023-02-24T17:13:42.880Z,3.05
2023-02-24T17:16:10.926Z,2.70
2023-02-24T17:18:39.677Z,2.80
2023-02-24T17:21:08.173Z,3.80
2023-02-24T17:23:36.560Z,2.75
2023-02-24T17:26:04.286Z,3.00
2023-02-24T17:28:32.229Z,2.75
2023-02-24T17:30:59.744Z,2.50
2023-02-24T17:33:27.655Z,2.53
2023-02-24T17:35:59.525Z,2.22
2023-02-24T17:38:27.068Z,2.55
2023-02-24T17:40:58.345Z,2.67
2023-02-24T17:43:30.352Z,2.60
2023-02-24T17:45:58.284Z,2.67
2023-02-24T17:48:25.646Z,2.80
2023-02-24T17:50:53.627Z,2.78
2023-02-24T17:53:21.147Z,3.10
2023-02-24T17:56:01.965Z,3.33
2023-02-24T17:58:30.741Z,3.55
2023-02-24T18:00:58.563Z,3.70
2023-02-24T18:03:26.308Z,3.55
2023-02-24T18:06:02.746Z,4.95
2023-02-24T18:08:31.133Z,4.22
2023-02-24T18:10:59.366Z,4.22
2023-02-24T18:13:28.829Z,4.55
2023-02-24T18:15:56.700Z,4.43
2023-02-24T18:18:26.609Z,4.30
2023-02-24T18:20:59.181Z,4.57
2023-02-24T18:23:27.771Z,4.57
2023-02-24T18:25:55.506Z,4.82
2023-02-24T18:28:23.066Z,4.68
2023-02-24T18:30:52.233Z,4.10
2023-02-24T18:33:20.404Z,4.38
2023-02-24T18:35:48.104Z,4.28
2023-02-24T18:38:17.625Z,4.22
2023-02-24T18:40:46.128Z,4.28
2023-02-24T18:43:13.749Z,4.47
2023-02-24T18:45:43.737Z,4.07
2023-02-24T18:48:11.391Z,4.35
2023-02-24T18:50:39.538Z,3.65
2023-02-24T18:53:07.356Z,4.55
2023-02-24T18:55:36.358Z,3.78
2023-02-24T18:58:03.870Z,5.07
2023-02-24T19:00:31.216Z,4.88
2023-02-24T19:02:58.698Z,4.13
2023-02-24T19:05:36.797Z,4.10
2023-02-24T19:08:07.905Z,4.20
2023-02-24T19:10:39.328Z,4.43
2023-02-24T19:13:10.949Z,3.70
2023-02-24T19:15:38.967Z,4.30
2023-02-24T19:18:09.480Z,5.00
2023-02-24T19:20:42.343Z,4.75
2023-02-24T19:25:40.578Z,3.90
2023-02-24T19:28:10.008Z,4.00
2023-02-24T19:30:40.227Z,4.68
2023-02-24T19:33:09.902Z,4.15
2023-02-24T19:35:46.622Z,4.53
2023-02-24T19:38:18.777Z,4.05
2023-02-24T19:40:46.262Z,4.13
2023-02-24T19:43:13.772Z,4.93
2023-02-24T19:45:43.905Z,4.82
2023-02-24T19:48:14.320Z,4.72
2023-02-24T19:50:46.509Z,4.53
2023-02-24T19:53:14.413Z,6.15
2023-02-24T19:55:42.451Z,4.30
2023-02-24T19:58:12.562Z,4.40
2023-02-24T20:00:41.483Z,4.10
2023-02-24T20:03:09.476Z,3.33
2023-02-24T20:05:38.529Z,3.40
2023-02-24T20:08:06.145Z,3.17
2023-02-24T20:10:34.503Z,3.35
2023-02-24T20:13:08.406Z,3.15
2023-02-24T20:15:36.326Z,3.00
2023-02-24T20:18:08.495Z,2.92
2023-02-24T20:20:37.467Z,2.97
2023-02-24T20:23:06.765Z,3.22
2023-02-24T20:25:38.210Z,3.22
2023-02-24T20:28:05.980Z,3.45
2023-02-24T20:30:33.602Z,3.88
2023-02-24T20:33:02.633Z,3.25
2023-02-24T20:35:30.103Z,3.38
2023-02-24T20:37:58.521Z,3.50
2023-02-24T20:40:26.044Z,4.35
2023-02-24T20:42:56.154Z,3.78
2023-02-24T20:45:23.754Z,3.55
2023-02-24T20:47:52.857Z,3.55
2023-02-24T20:50:20.811Z,3.92
2023-02-24T20:52:49.289Z,4.25
2023-02-24T20:55:19.688Z,4.38
2023-02-24T20:57:54.885Z,4.45
2023-02-24T21:00:28.444Z,4.22
2023-02-24T21:02:58.494Z,4.00
2023-02-24T21:05:26.808Z,4.70
2023-02-24T21:07:56.689Z,3.78
2023-02-24T21:10:25.904Z,4.28
2023-02-24T21:12:54.524Z,4.07
2023-02-24T21:15:24.333Z,4.03
2023-02-24T21:17:52.209Z,4.07
2023-02-24T21:23:04.994Z,3.88
2023-02-24T21:25:32.703Z,4.47
2023-02-24T21:28:04.401Z,3.78
2023-02-24T21:30:33.974Z,4.30
2023-02-24T21:33:03.169Z,4.22
2023-02-24T21:35:31.291Z,3.05
2023-02-24T21:38:00.631Z,3.58
2023-02-24T21:40:28.244Z,3.55
2023-02-24T21:42:55.891Z,3.17
2023-02-24T21:45:24.749Z,3.63
2023-02-24T21:47:53.346Z,2.97
2023-02-24T21:50:21.876Z,4.03
2023-02-24T21:52:50.085Z,2.80
2023-02-24T21:55:20.640Z,3.78
2023-02-24T21:57:51.702Z,3.05
2023-02-24T22:00:21.474Z,3.65
2023-02-24T22:02:56.853Z,2.88
2023-02-24T22:05:26.330Z,3.72
2023-02-24T22:08:00.679Z,3.97
2023-02-24T22:10:38.214Z,3.17
2023-02-24T22:13:08.201Z,3.70
2023-02-24T22:15:39.797Z,3.65
2023-02-24T22:18:12.454Z,3.75
2023-02-24T22:20:40.337Z,2.55
2023-02-24T22:23:08.035Z,2.70
2023-02-24T22:25:39.484Z,2.92
2023-02-24T22:28:08.001Z,2.70
2023-02-24T22:30:41.131Z,4.38
2023-02-24T22:33:10.462Z,6.47
2023-02-24T22:35:42.445Z,6.18
2023-02-24T22:38:16.683Z,5.47
2023-02-24T22:40:45.901Z,4.78
2023-02-24T22:43:16.767Z,3.30
2023-02-24T22:45:45.228Z,2.55
2023-02-24T22:48:13.182Z,3.00
2023-02-24T22:50:41.153Z,2.95
2023-02-24T22:53:08.694Z,2.95
2023-02-24T22:55:48.623Z,2.60
2023-02-24T22:58:17.100Z,2.75
2023-02-24T23:00:47.392Z,2.78
2023-02-24T23:03:20.456Z,2.97
2023-02-24T23:06:03.702Z,3.00
2023-02-24T23:08:35.523Z,3.13
2023-02-24T23:11:30.076Z,3.25
2023-02-24T23:14:05.706Z,2.80
2023-02-24T23:16:36.603Z,3.88
2023-02-24T23:19:07.739Z,3.92
2023-02-24T23:21:42.519Z,3.63
2023-02-24T23:24:12.349Z,3.80
2023-02-24T23:26:49.517Z,3.67
2023-02-24T23:29:18.579Z,4.25
2023-02-24T23:31:51.460Z,3.40
2023-02-24T23:34:20.496Z,2.95
2023-02-24T23:36:49.561Z,3.58
2023-02-24T23:39:23.177Z,3.60
2023-02-24T23:41:59.811Z,3.47
2023-02-24T23:44:27.338Z,2.92
2023-02-24T23:46:59.330Z,3.22
2023-02-24T23:49:36.126Z,3.40
2023-02-24T23:52:13.418Z,3.05
2023-02-24T23:54:41.743Z,3.60
2023-02-24T23:57:10.527Z,2.90
2023-02-24T23:59:39.435Z,3.28
